Time;durP1;ratioP1;P1;durP2;ratioP2;P2;SDS_P1;SDS_P2;PMS_P1;PMS_P2;Temp;Humidity;BMP_temperature;BMP_pressure;BME280_temperature;BME280_humidity;BME280_pressure;Samples;Min_cycle;Max_cycle;Signal;HPM_P1;HPM_P2
2021/01/28 00:00:21;;;;;;;16.98;12.93;;;;;;;1.26;93.24;100151.00;5003037;28;20061;-78
2021/01/28 00:02:48;;;;;;;21.00;13.00;;;;;;;1.31;92.91;100150.91;5009196;28;20118;-80
2021/01/28 00:05:16;;;;;;;20.33;14.02;;;;;;;1.31;93.12;100149.16;5016066;28;20117;-82
2021/01/28 00:07:43;;;;;;;19.73;14.45;;;;;;;1.27;93.37;100139.78;4980963;28;20153;-82
2021/01/28 00:10:11;;;;;;;22.33;14.52;;;;;;;1.20;93.14;100141.66;4991520;28;20042;-80
2021/01/28 00:12:38;;;;;;;23.50;16.08;;;;;;;1.17;93.70;100136.59;5000197;28;20050;-81
2021/01/28 00:15:07;;;;;;;22.67;14.02;;;;;;;1.36;93.18;100138.66;4997326;28;20061;-80
2021/01/28 00:17:35;;;;;;;20.98;14.60;;;;;;;1.19;93.62;100136.53;5015157;28;20064;-80
2021/01/28 00:20:27;;;;;;;23.77;15.00;;;;;;;1.03;94.80;100128.31;5014182;28;20106;-79
2021/01/28 00:22:57;;;;;;;23.88;15.70;;;;;;;1.13;95.12;100123.75;5002667;28;20080;-82
2021/01/28 00:25:30;;;;;;;;;;;;;;;1.37;93.59;100111.81;5001726;28;20038;-80
2021/01/28 00:27:57;;;;;;;23.38;16.23;;;;;;;1.03;95.25;100112.78;5014036;28;20025;-84
2021/01/28 00:30:27;;;;;;;25.85;16.25;;;;;;;1.23;95.20;100107.03;4990503;28;20049;-82
2021/01/28 00:32:53;;;;;;;28.45;17.33;;;;;;;1.15;95.27;100101.22;5012833;28;20082;-80
2021/01/28 00:35:26;;;;;;;22.67;16.75;;;;;;;1.25;95.03;100089.69;5008308;28;20084;-81
2021/01/28 00:37:53;;;;;;;24.55;16.23;;;;;;;1.17;95.70;100095.13;5007169;28;20066;-79
2021/01/28 00:40:21;;;;;;;24.40;17.98;;;;;;;1.17;95.96;100102.00;4972541;28;20050;-79
2021/01/28 00:42:49;;;;;;;24.75;16.75;;;;;;;1.32;94.88;100096.41;4983899;28;21230;-80
2021/01/28 00:45:17;;;;;;;24.38;17.35;;;;;;;1.54;94.89;100093.16;4992996;28;20050;-81
2021/01/28 00:47:54;;;;;;;22.20;16.92;;;;;;;1.42;94.35;100094.38;5026114;28;20046;-81
2021/01/28 00:50:21;;;;;;;;;;;;;;;1.28;95.06;100092.19;5009543;28;20046;-80
2021/01/28 00:52:51;;;;;;;25.02;16.83;;;;;;;1.29;95.65;100091.28;4992865;28;19925;-81
2021/01/28 00:55:19;;;;;;;23.23;16.80;;;;;;;1.39;95.51;100086.69;5038943;23;20049;-85
2021/01/28 00:57:46;;;;;;;30.10;20.10;;;;;;;1.21;96.31;100086.31;5008454;28;20352;-83
2021/01/28 01:00:19;;;;;;;23.77;17.05;;;;;;;1.31;97.26;100079.16;5000419;28;20141;-83
2021/01/28 01:02:46;;;;;;;26.60;18.30;;;;;;;1.33;96.50;100076.50;4990443;28;20426;-84
2021/01/28 01:05:16;;;;;;;27.77;18.70;;;;;;;1.29;96.11;100083.50;5007709;28;21094;-82
2021/01/28 01:07:47;;;;;;;29.17;19.40;;;;;;;1.21;96.89;100085.47;4987570;28;20136;-81
2021/01/28 01:10:27;;;;;;;27.10;18.35;;;;;;;1.06;97.90;100075.56;4986041;28;20610;-80
2021/01/28 01:12:54;;;;;;;27.70;19.92;;;;;;;1.15;97.36;100075.28;4996459;28;20049;-82
2021/01/28 01:15:21;;;;;;;28.33;19.50;;;;;;;1.20;97.96;100068.22;4991859;28;20156;-81
2021/01/28 01:17:48;;;;;;;28.15;18.75;;;;;;;1.27;97.82;100061.97;5023688;28;20053;-84
2021/01/28 01:20:19;;;;;;;26.33;18.52;;;;;;;1.34;97.47;100057.44;5017232;28;20800;-82
2021/01/28 01:22:46;;;;;;;26.60;19.45;;;;;;;1.11;98.34;100061.56;5029019;28;20812;-84
2021/01/28 01:25:14;;;;;;;34.35;21.17;;;;;;;1.12;98.61;100050.28;5001805;28;20121;-83
2021/01/28 01:27:41;;;;;;;31.27;20.60;;;;;;;1.30;98.64;100041.13;5012276;28;20072;-82
2021/01/28 01:30:08;;;;;;;32.22;19.88;;;;;;;1.47;98.10;100025.91;5007615;28;20201;-83
2021/01/28 01:32:35;;;;;;;29.98;20.98;;;;;;;1.41;97.73;100025.25;4996749;28;20061;-82
2021/01/28 01:35:03;;;;;;;30.63;20.33;;;;;;;1.33;99.21;100014.25;5015161;28;20077;-80
2021/01/28 01:37:30;;;;;;;32.72;21.38;;;;;;;1.41;98.71;100020.06;4986431;28;20936;-81
2021/01/28 01:39:57;;;;;;;31.00;21.02;;;;;;;1.25;99.39;100017.09;5016569;28;20068;-81
2021/01/28 01:42:24;;;;;;;32.03;21.70;;;;;;;1.15;100.00;100011.31;5001858;28;20045;-85
2021/01/28 01:44:50;;;;;;;32.35;22.10;;;;;;;1.32;100.00;100005.63;5007576;28;20085;-82
2021/01/28 01:47:17;;;;;;;29.90;20.88;;;;;;;1.40;100.00;100008.84;5012000;28;20061;-84
2021/01/28 01:49:45;;;;;;;35.22;23.80;;;;;;;1.44;100.00;99996.59;5029295;28;20057;-81
2021/01/28 01:52:13;;;;;;;29.65;20.17;;;;;;;1.52;99.96;100000.66;5016660;28;20065;-81
2021/01/28 01:54:42;;;;;;;30.88;20.88;;;;;;;1.39;100.00;99999.34;5014466;28;20166;-83
2021/01/28 01:57:15;;;;;;;29.23;20.75;;;;;;;1.41;100.00;99992.38;5015207;28;20060;-83
2021/01/28 01:59:46;;;;;;;34.13;21.77;;;;;;;1.14;100.00;100001.00;4997745;28;20304;-82
2021/01/28 02:02:14;;;;;;;33.30;20.63;;;;;;;1.31;100.00;99993.56;5017813;28;20030;-83
2021/01/28 02:04:43;;;;;;;31.02;20.42;;;;;;;1.32;100.00;99997.00;5007440;28;20042;-78
2021/01/28 02:07:20;;;;;;;34.13;21.17;;;;;;;1.31;100.00;99996.16;4983265;28;20114;-83
2021/01/28 02:09:47;;;;;;;31.00;20.42;;;;;;;1.55;100.00;100004.06;5013130;28;20057;-83
2021/01/28 02:12:14;;;;;;;32.33;21.42;;;;;;;1.33;100.00;99999.53;5023090;28;20533;-83
2021/01/28 02:14:41;;;;;;;30.80;20.40;;;;;;;1.37;100.00;99992.53;4998032;28;20572;-81
2021/01/28 02:17:18;;;;;;;30.75;20.42;;;;;;;1.51;100.00;99990.34;4989326;28;20037;-82
2021/01/28 02:20:15;;;;;;;31.67;20.50;;;;;;;1.65;100.00;99998.53;5000369;28;20054;-83
2021/01/28 02:22:46;;;;;;;28.20;18.65;;;;;;;1.57;100.00;99991.88;5006413;28;20119;-83
2021/01/28 02:25:40;;;;;;;29.70;20.17;;;;;;;1.65;100.00;99993.34;5019492;28;20037;-81
2021/01/28 02:28:10;;;;;;;28.95;19.95;;;;;;;1.58;100.00;99991.84;5007082;28;20053;-83
2021/01/28 02:30:37;;;;;;;31.65;20.67;;;;;;;1.51;100.00;99979.97;5006374;28;20552;-84
2021/01/28 02:33:08;;;;;;;33.83;21.00;;;;;;;1.64;100.00;99983.84;5006549;28;20077;-83
2021/01/28 02:35:35;;;;;;;32.72;22.52;;;;;;;1.65;100.00;99982.13;4995894;28;20152;-81
2021/01/28 02:38:07;;;;;;;31.70;21.25;;;;;;;1.53;100.00;99975.56;4993026;28;20056;-80
2021/01/28 02:40:34;;;;;;;32.65;20.38;;;;;;;1.79;100.00;99972.13;5016139;28;20060;-84
2021/01/28 02:43:02;;;;;;;32.92;21.67;;;;;;;1.64;100.00;99970.03;5003274;28;20076;-82
2021/01/28 02:45:32;;;;;;;31.95;21.58;;;;;;;1.67;100.00;99968.22;5030955;28;20094;-84
2021/01/28 02:48:01;;;;;;;29.80;20.80;;;;;;;1.61;100.00;99970.13;5023477;28;20080;-81
2021/01/28 02:50:30;;;;;;;30.70;22.23;;;;;;;1.82;100.00;99969.44;5008530;28;20034;-83
2021/01/28 03:18:10;;;;;;;29.33;18.95;;;;;;;2.03;100.00;99934.97;4978316;28;20118;-81
2021/01/28 03:20:38;;;;;;;31.67;21.67;;;;;;;2.05;100.00;99929.72;4925606;28;20054;-81
2021/01/28 03:23:05;;;;;;;29.23;19.58;;;;;;;2.08;100.00;99926.16;5000277;28;20132;-81
2021/01/28 03:25:32;;;;;;;28.33;19.55;;;;;;;2.16;100.00;99926.72;5012506;28;20453;-82
2021/01/28 03:27:59;;;;;;;30.95;20.92;;;;;;;2.04;100.00;99928.03;5000004;28;20119;-83
2021/01/28 03:30:30;;;;;;;29.38;20.17;;;;;;;1.99;100.00;99924.75;5031929;28;20109;-84
2021/01/28 03:32:59;;;;;;;27.10;19.42;;;;;;;2.09;100.00;99914.88;5023275;28;20059;-82
2021/01/28 03:35:26;;;;;;;30.42;19.90;;;;;;;2.06;100.00;99933.16;4998731;28;20051;-84
2021/01/28 03:37:53;;;;;;;30.83;20.58;;;;;;;2.06;100.00;99923.59;4997322;28;20076;-82
2021/01/28 03:40:29;;;;;;;31.85;20.23;;;;;;;2.20;100.00;99912.72;4999224;28;20498;-81
2021/01/28 03:42:56;;;;;;;31.00;19.55;;;;;;;2.12;100.00;99902.63;5012529;28;20044;-82
2021/01/28 03:45:23;;;;;;;32.83;21.38;;;;;;;2.06;100.00;99902.84;4998533;28;20049;-84
2021/01/28 03:47:50;;;;;;;35.42;21.40;;;;;;;2.16;100.00;99896.44;5017949;28;20045;-84
2021/01/28 03:50:20;;;;;;;32.35;21.25;;;;;;;2.17;100.00;99892.94;4992073;28;20096;-82
2021/01/28 03:52:48;;;;;;;32.58;21.23;;;;;;;2.19;100.00;99896.31;5019202;28;20070;-82
2021/01/28 03:55:15;;;;;;;34.60;22.77;;;;;;;2.22;100.00;99897.97;5014558;28;20045;-85
2021/01/28 03:57:41;;;;;;;32.72;21.92;;;;;;;2.32;100.00;99886.31;5010411;28;20175;-80
2021/01/28 04:00:10;;;;;;;34.75;22.80;;;;;;;2.30;100.00;99875.16;4981014;28;20068;-82
2021/01/28 04:02:37;;;;;;;33.30;22.75;;;;;;;2.46;100.00;99872.81;4974292;28;20054;-80
2021/01/28 04:05:05;;;;;;;34.00;22.90;;;;;;;2.50;100.00;99877.00;4996547;28;20221;-78
2021/01/28 04:07:32;;;;;;;31.05;20.92;;;;;;;2.63;100.00;99874.78;5004537;28;20120;-84
2021/01/28 04:09:59;;;;;;;30.77;20.48;;;;;;;2.60;100.00;99867.09;5008808;28;20060;-81
2021/01/28 04:12:26;;;;;;;33.15;20.05;;;;;;;2.63;100.00;99860.03;5014859;28;20045;-81
2021/01/28 04:14:53;;;;;;;30.40;19.45;;;;;;;2.61;100.00;99856.66;4996006;28;20112;-81
2021/01/28 04:17:20;;;;;;;30.02;19.92;;;;;;;2.46;100.00;99865.03;4992813;28;20046;-80
2021/01/28 04:19:47;;;;;;;31.33;19.42;;;;;;;2.61;100.00;99855.78;4984823;28;20069;-79
2021/01/28 04:22:14;;;;;;;28.58;18.38;;;;;;;2.62;100.00;99860.94;5003710;28;20062;-83
2021/01/28 04:24:41;;;;;;;30.55;19.90;;;;;;;2.60;100.00;99857.53;5024900;28;20088;-83
2021/01/28 04:27:08;;;;;;;35.15;20.73;;;;;;;2.57;100.00;99859.41;5012976;28;20030;-82
2021/01/28 04:29:36;;;;;;;30.13;19.80;;;;;;;2.62;100.00;99845.34;5008681;28;20046;-82
2021/01/28 04:32:10;;;;;;;27.55;20.00;;;;;;;2.58;100.00;99848.97;5016013;28;20038;-84
2021/01/28 04:34:37;;;;;;;33.53;21.70;;;;;;;2.65;100.00;99858.22;5014049;28;20062;-83
2021/01/28 04:37:04;;;;;;;30.27;20.85;;;;;;;2.69;100.00;99856.34;5026075;28;20041;-83
2021/01/28 04:39:31;;;;;;;34.72;21.23;;;;;;;2.59;100.00;99850.66;5033875;28;20030;-84
2021/01/28 04:41:58;;;;;;;31.75;20.58;;;;;;;2.64;100.00;99843.53;5032715;28;20064;-83
2021/01/28 04:44:25;;;;;;;28.73;20.05;;;;;;;2.64;100.00;99850.47;5020825;28;20037;-83
2021/01/28 04:46:55;;;;;;;31.90;20.95;;;;;;;2.53;100.00;99843.13;5030389;28;20940;-79
2021/01/28 04:49:24;;;;;;;33.42;22.40;;;;;;;2.56;100.00;99842.13;5025896;28;20080;-79
2021/01/28 04:52:01;;;;;;;29.85;19.35;;;;;;;2.59;100.00;99840.28;5022635;28;20054;-80
2021/01/28 04:54:36;;;;;;;30.08;19.55;;;;;;;2.72;100.00;99845.84;4993432;28;20096;-80
2021/01/28 04:57:09;;;;;;;30.92;20.42;;;;;;;2.78;100.00;99835.19;4992859;28;20041;-83
2021/01/28 04:59:43;;;;;;;28.55;19.42;;;;;;;2.76;100.00;99832.66;5009287;28;20136;-81
2021/01/28 05:02:15;;;;;;;30.38;20.13;;;;;;;2.84;100.00;99834.97;4998736;28;20794;-81
2021/01/28 05:04:52;;;;;;;31.92;20.10;;;;;;;2.76;100.00;99830.06;4992323;28;20041;-81
2021/01/28 05:07:26;;;;;;;30.30;19.80;;;;;;;2.71;100.00;99838.97;5015200;28;20026;-83
2021/01/28 05:10:09;;;;;;;33.63;20.67;;;;;;;2.76;100.00;99824.03;5014554;28;20100;-84
2021/01/28 05:12:37;;;;;;;36.00;23.95;;;;;;;2.59;100.00;99826.44;5020177;28;20054;-84
2021/01/28 05:15:18;;;;;;;34.35;22.73;;;;;;;2.61;100.00;99827.22;5021448;28;20527;-84
2021/01/28 05:17:59;;;;;;;34.42;21.15;;;;;;;2.75;100.00;99822.34;5024392;28;20046;-82
2021/01/28 05:20:26;;;;;;;34.13;21.27;;;;;;;2.74;100.00;99821.47;5004081;28;20081;-83
2021/01/28 05:22:59;;;;;;;35.55;22.52;;;;;;;2.70;100.00;99809.53;5015861;28;20116;-85
2021/01/28 05:25:26;;;;;;;34.83;22.35;;;;;;;2.70;100.00;99806.94;4989789;28;20054;-86
2021/01/28 05:27:53;;;;;;;39.45;25.27;;;;;;;2.72;100.00;99805.09;5026923;28;20045;-85
2021/01/28 05:30:41;;;;;;;37.05;21.95;;;;;;;2.89;100.00;99803.59;4978772;28;20131;-79
2021/01/28 05:33:31;;;;;;;33.38;20.90;;;;;;;3.00;100.00;99806.59;5002507;28;20140;-81
2021/01/28 05:36:04;;;;;;;36.08;21.55;;;;;;;2.88;100.00;99797.56;5032434;28;20052;-82
2021/01/28 05:38:37;;;;;;;35.60;21.85;;;;;;;2.92;100.00;99801.69;5031957;28;20393;-83
2021/01/28 05:41:04;;;;;;;36.80;22.35;;;;;;;2.96;100.00;99811.06;4996316;28;20041;-83
2021/01/28 05:43:36;;;;;;;35.97;21.95;;;;;;;2.91;100.00;99807.81;5012089;28;20068;-81
2021/01/28 05:46:13;;;;;;;42.45;23.27;;;;;;;2.92;100.00;99813.84;5011961;28;20066;-85
2021/01/28 05:48:41;;;;;;;35.25;22.45;;;;;;;2.94;100.00;99809.44;5009624;28;20069;-80
2021/01/28 05:51:18;;;;;;;38.20;23.48;;;;;;;2.89;100.00;99814.00;5017863;28;20042;-80
2021/01/28 05:54:03;;;;;;;38.45;23.88;;;;;;;2.93;100.00;99811.19;4993997;28;20051;-83
2021/01/28 05:56:31;;;;;;;36.97;23.13;;;;;;;2.91;100.00;99809.56;4971240;28;20522;-81
2021/01/28 05:59:09;;;;;;;38.65;23.10;;;;;;;2.91;100.00;99796.56;4990632;28;20066;-80
2021/01/28 06:02:11;;;;;;;37.10;21.90;;;;;;;3.08;100.00;99804.53;5002621;28;20610;-85
2021/01/28 06:22:08;;;;;;;38.05;21.17;;;;;;;3.04;100.00;99806.41;5021239;28;20133;-83
2021/01/28 06:43:37;;;;;;;33.53;21.02;;;;;;;3.31;100.00;99803.56;4917278;29;20083;-80
2021/01/28 06:52:25;;;;;;;39.45;20.92;;;;;;;3.25;100.00;99796.03;4861646;29;20045;-79
2021/01/28 06:56:22;;;;;;;36.75;21.45;;;;;;;3.24;100.00;99815.13;4829480;29;20051;-84
2021/01/28 06:59:12;;;;;;;31.95;16.55;;;;;;;3.08;100.00;99806.28;4924785;28;20093;-81
2021/01/28 07:02:01;;;;;;;30.67;17.40;;;;;;;3.24;100.00;99815.13;4950423;28;20737;-82
2021/01/28 07:04:36;;;;;;;35.05;13.52;;;;;;;3.25;100.00;99819.44;4934857;28;20118;-83
2021/01/28 07:07:25;;;;;;;18.95;10.65;;;;;;;3.08;100.00;99827.94;4947062;28;20061;-80
2021/01/28 07:09:59;;;;;;;16.67;8.98;;;;;;;2.87;100.00;99821.81;4970723;28;20106;-83
2021/01/28 07:12:33;;;;;;;12.23;6.60;;;;;;;2.80;100.00;99823.00;4949564;28;20062;-83
2021/01/28 07:14:59;;;;;;;18.38;7.70;;;;;;;2.73;100.00;99826.72;4938254;28;20141;-81
2021/01/28 07:17:32;;;;;;;11.48;6.50;;;;;;;2.78;100.00;99814.41;4955384;28;20054;-84
2021/01/28 07:20:08;;;;;;;14.20;7.72;;;;;;;2.81;100.00;99819.50;4944755;28;20050;-84
2021/01/28 07:22:40;;;;;;;18.33;7.57;;;;;;;2.94;100.00;99814.66;4941695;28;20055;-85
2021/01/28 07:25:28;;;;;;;12.32;6.30;;;;;;;2.85;100.00;99817.63;4987120;28;20080;-84
2021/01/28 07:28:19;;;;;;;11.52;5.80;;;;;;;2.85;100.00;99817.63;5029866;28;20045;-83
2021/01/28 07:30:52;;;;;;;11.70;5.50;;;;;;;2.87;100.00;99811.44;5007195;28;20136;-83
2021/01/28 07:33:25;;;;;;;11.15;5.30;;;;;;;2.75;100.00;99810.19;5007709;28;20080;-80
2021/01/28 07:35:57;;;;;;;12.80;5.95;;;;;;;2.64;100.00;99804.56;5023138;28;20163;-83
2021/01/28 07:38:27;;;;;;;11.02;5.95;;;;;;;2.56;100.00;99808.34;5024240;28;20045;-81
2021/01/28 08:50:59;;;;;;;11.20;7.10;;;;;;;2.98;89.60;99806.66;4925382;28;20072;-82
2021/01/28 09:03:03;;;;;;;14.90;7.68;;;;;;;2.96;88.80;99821.44;5010355;28;20040;-82
2021/01/28 09:05:34;;;;;;;12.52;7.18;;;;;;;2.91;89.79;99812.16;4994457;28;20061;-85
2021/01/28 09:08:09;;;;;;;13.48;8.45;;;;;;;3.05;89.69;99813.28;5006192;28;20135;-85
2021/01/28 09:10:42;;;;;;;15.52;9.20;;;;;;;3.02;89.79;99813.44;5013764;28;20140;-81
2021/01/28 09:13:13;;;;;;;13.75;7.70;;;;;;;3.16;87.85;99809.41;5003463;28;20458;-82
2021/01/28 09:15:42;;;;;;;17.13;8.70;;;;;;;3.04;87.93;99813.34;5006009;28;20108;-82
2021/01/28 09:18:28;;;;;;;13.95;7.97;;;;;;;2.66;88.06;99812.31;5003155;28;20037;-84
2021/01/28 09:21:17;;;;;;;16.48;9.15;;;;;;;2.71;88.95;99818.16;5004935;28;20056;-83
2021/01/28 09:24:03;;;;;;;15.90;8.20;;;;;;;2.57;89.05;99810.91;5005030;28;20055;-82
2021/01/28 09:26:35;;;;;;;14.75;8.80;;;;;;;2.57;88.19;99810.91;4999551;28;20065;-84
2021/01/28 09:29:19;;;;;;;20.52;9.50;;;;;;;2.73;88.70;99818.94;5004365;28;20057;-81
2021/01/28 09:31:48;;;;;;;15.75;8.75;;;;;;;2.62;87.03;99819.38;5019156;28;20037;-82
2021/01/28 09:34:17;;;;;;;15.90;8.52;;;;;;;2.70;87.50;99814.72;5006077;28;20057;-84
2021/01/28 09:36:55;;;;;;;19.27;8.85;;;;;;;2.67;86.14;99812.25;5041181;28;20054;-82
2021/01/28 09:39:30;;;;;;;42.85;8.93;;;;;;;2.73;86.85;99814.59;5016991;28;20045;-82
2021/01/28 09:42:28;;;;;;;32.20;9.35;;;;;;;2.57;86.00;99812.63;5028354;28;20419;-81
2021/01/28 09:45:07;;;;;;;25.25;8.55;;;;;;;2.53;82.59;99810.19;5013971;28;20368;-81
2021/01/28 09:47:35;;;;;;;19.67;7.97;;;;;;;2.49;83.51;99805.16;5012771;28;20065;-82
2021/01/28 09:50:06;;;;;;;16.17;8.18;;;;;;;2.87;83.73;99801.03;5015864;28;20704;-82
2021/01/28 09:52:43;;;;;;;14.60;7.75;;;;;;;3.05;81.48;99792.47;5010524;28;20110;-82
2021/01/28 09:55:16;;;;;;;15.63;7.95;;;;;;;3.11;80.90;99794.00;5006735;28;20018;-83
2021/01/28 09:57:43;;;;;;;11.82;6.82;;;;;;;3.32;81.00;99799.19;4973154;28;20324;-82
2021/01/28 10:00:14;;;;;;;13.02;7.50;;;;;;;3.26;79.52;99789.91;4990300;28;20063;-82
2021/01/28 10:03:01;;;;;;;25.50;8.75;;;;;;;2.86;80.54;99788.94;5004127;28;20145;-84
2021/01/28 10:05:30;;;;;;;28.17;8.30;;;;;;;3.03;81.34;99783.91;4976908;28;20392;-84
2021/01/28 10:07:58;;;;;;;51.95;12.52;;;;;;;3.24;80.81;99774.38;4992647;28;20045;-82
2021/01/28 10:10:29;;;;;;;15.57;7.85;;;;;;;3.25;78.98;99775.22;5010617;28;20041;-83
2021/01/28 10:13:04;;;;;;;27.98;9.18;;;;;;;3.40;78.57;99778.91;5008388;28;20113;-82
2021/01/28 10:15:31;;;;;;;17.97;8.10;;;;;;;3.50;79.72;99770.63;5004420;28;20050;-82
2021/01/28 10:18:00;;;;;;;21.83;8.68;;;;;;;3.49;79.69;99771.53;5011226;28;20033;-82
2021/01/28 10:20:28;;;;;;;16.15;7.78;;;;;;;3.07;79.14;99776.84;5020709;28;20221;-81
2021/01/28 10:23:01;;;;;;;13.38;7.75;;;;;;;2.68;79.97;99779.28;5008117;28;20046;-80
2021/01/28 10:25:29;;;;;;;18.40;7.90;;;;;;;2.99;80.60;99773.69;4991757;28;20057;-81
2021/01/28 10:27:58;;;;;;;25.48;9.05;;;;;;;3.21;80.29;99763.25;5030345;28;20109;-83
2021/01/28 10:30:27;;;;;;;21.52;8.43;;;;;;;2.66;81.51;99761.19;5018015;28;20049;-80
2021/01/28 10:32:55;;;;;;;14.57;7.38;;;;;;;2.60;81.62;99755.38;5016340;28;20064;-82
2021/01/28 10:35:26;;;;;;;19.23;8.00;;;;;;;2.78;80.61;99746.81;5002737;28;20053;-82
2021/01/28 10:37:54;;;;;;;13.95;7.93;;;;;;;2.92;80.43;99751.44;5006331;28;20108;-84
2021/01/28 10:40:23;;;;;;;18.30;9.20;;;;;;;2.72;80.00;99749.69;4994275;28;20045;-81
2021/01/28 10:42:56;;;;;;;24.05;7.68;;;;;;;3.04;80.84;99748.34;5019184;28;20026;-83
2021/01/28 10:45:26;;;;;;;20.05;9.18;;;;;;;3.24;80.01;99750.97;5024420;28;20051;-84
2021/01/28 10:47:53;;;;;;;15.52;7.65;;;;;;;2.79;80.17;99744.19;5010533;28;20033;-84
2021/01/28 10:50:29;;;;;;;16.02;7.43;;;;;;;3.26;79.62;99741.31;5032357;28;20033;-82
2021/01/28 10:52:56;;;;;;;19.42;8.20;;;;;;;3.40;79.32;99748.53;5008706;28;20046;-86
2021/01/28 10:55:30;;;;;;;29.98;9.25;;;;;;;3.53;78.37;99739.28;5005452;28;20093;-85
2021/01/28 10:57:56;;;;;;;19.30;8.70;;;;;;;3.49;76.87;99731.69;5019834;28;20037;-84
2021/01/28 11:00:24;;;;;;;15.35;7.50;;;;;;;3.27;76.59;99730.00;5022424;28;20104;-82
2021/01/28 11:02:51;;;;;;;20.33;8.38;;;;;;;3.32;77.09;99722.00;5013989;28;20046;-84
2021/01/28 11:05:23;;;;;;;17.08;7.82;;;;;;;3.18;76.45;99716.56;4995295;28;20058;-84
2021/01/28 11:07:52;;;;;;;16.83;6.82;;;;;;;3.24;76.85;99711.06;5031090;28;20052;-85
2021/01/28 11:10:19;;;;;;;12.35;6.97;;;;;;;2.75;77.67;99713.19;4997439;28;20068;-85
2021/01/28 11:12:46;;;;;;;18.10;6.95;;;;;;;2.69;77.84;99697.81;4998451;28;20064;-82
2021/01/28 11:15:16;;;;;;;16.70;7.85;;;;;;;2.50;79.68;99702.94;5001096;28;20682;-85
2021/01/28 11:17:44;;;;;;;14.45;7.68;;;;;;;2.63;79.07;99692.88;4975807;28;20054;-86
2021/01/28 11:20:12;;;;;;;14.30;7.75;;;;;;;2.84;80.63;99680.75;4999811;28;20056;-83
2021/01/28 11:22:40;;;;;;;11.43;7.20;;;;;;;2.65;78.96;99681.50;4990786;28;20107;-82
2021/01/28 11:25:10;;;;;;;12.75;7.50;;;;;;;2.68;78.41;99676.19;5009787;28;20491;-82
2021/01/28 11:27:38;;;;;;;11.88;6.63;;;;;;;3.04;77.25;99676.38;5013192;28;20041;-83
2021/01/28 11:30:07;;;;;;;11.38;6.88;;;;;;;2.92;76.68;99684.69;4991737;28;20029;-83
2021/01/28 11:32:34;;;;;;;10.80;6.75;;;;;;;2.76;77.60;99691.47;5018752;28;20037;-82
2021/01/28 11:35:06;;;;;;;11.13;6.78;;;;;;;2.95;78.38;99694.97;5020345;28;20063;-81
2021/01/28 11:37:33;;;;;;;12.13;7.18;;;;;;;2.89;77.22;99684.00;5016747;28;20041;-78
2021/01/28 11:40:00;;;;;;;11.93;6.65;;;;;;;3.33;75.93;99676.84;5026666;28;20037;-80
2021/01/28 11:42:27;;;;;;;11.57;6.63;;;;;;;3.40;75.74;99667.03;5031284;28;20068;-80
2021/01/28 11:44:54;;;;;;;10.18;5.78;;;;;;;3.62;75.14;99659.09;5009326;28;20125;-82
2021/01/28 11:47:24;;;;;;;8.85;6.03;;;;;;;3.84;74.66;99667.63;4993547;28;20060;-80
2021/01/28 11:49:52;;;;;;;9.85;6.45;;;;;;;3.57;72.21;99667.13;5002825;28;20060;-79
2021/01/28 11:52:19;;;;;;;13.13;6.90;;;;;;;3.78;74.17;99660.06;5019247;28;20057;-79
2021/01/28 11:54:45;;;;;;;9.68;6.10;;;;;;;3.94;75.59;99670.63;5006079;28;20072;-77
2021/01/28 11:57:12;;;;;;;11.65;6.40;;;;;;;3.72;73.05;99670.78;5034536;28;20141;-79
2021/01/28 11:59:40;;;;;;;9.75;6.07;;;;;;;3.54;73.01;99672.47;4996467;28;20053;-82
2021/01/28 12:02:07;;;;;;;10.40;5.20;;;;;;;3.36;74.00;99671.53;5011572;28;20109;-80
2021/01/28 12:04:34;;;;;;;7.95;4.88;;;;;;;3.34;72.63;99673.38;5029275;28;20060;-78
2021/01/28 12:07:01;;;;;;;8.48;4.60;;;;;;;3.15;72.83;99677.66;5030305;28;20153;-83
2021/01/28 12:09:27;;;;;;;8.27;4.90;;;;;;;2.70;74.13;99676.13;5015420;28;20112;-83
2021/01/28 12:11:54;;;;;;;6.93;4.40;;;;;;;2.55;74.26;99672.41;5042497;28;20065;-77
2021/01/28 12:14:22;;;;;;;9.05;4.40;;;;;;;2.81;73.81;99668.72;5030343;28;20073;-80
2021/01/28 12:16:49;;;;;;;6.68;4.25;;;;;;;2.98;72.30;99668.88;5035495;28;20502;-78
2021/01/28 12:19:16;;;;;;;5.60;3.53;;;;;;;3.11;72.44;99666.59;5008154;28;20104;-80
2021/01/28 12:21:43;;;;;;;8.65;4.13;;;;;;;2.90;72.14;99672.69;5029762;28;20053;-80
2021/01/28 12:24:11;;;;;;;7.18;4.28;;;;;;;3.37;72.37;99662.81;5011558;28;20033;-80
2021/01/28 12:26:38;;;;;;;7.93;4.47;;;;;;;3.51;70.97;99659.56;5035627;28;21063;-78
2021/01/28 12:29:05;;;;;;;11.32;5.25;;;;;;;3.53;71.23;99653.41;5017479;28;20088;-78
2021/01/28 12:31:32;;;;;;;9.73;5.07;;;;;;;3.65;70.97;99653.75;5015951;28;20046;-77
2021/01/28 12:33:59;;;;;;;7.30;4.38;;;;;;;3.83;70.35;99655.53;4995866;28;20082;-82
2021/01/28 12:36:28;;;;;;;6.57;4.43;;;;;;;3.50;69.79;99645.72;4997049;28;20076;-78
2021/01/28 12:38:55;;;;;;;9.18;4.90;;;;;;;3.73;70.21;99646.44;5010390;28;20041;-78
2021/01/28 12:41:23;;;;;;;7.65;3.70;;;;;;;3.02;70.50;99651.38;5012764;28;20145;-80
2021/01/28 12:43:49;;;;;;;4.60;2.92;;;;;;;2.81;70.01;99640.13;5018456;28;20044;-80
2021/01/28 12:46:16;;;;;;;5.68;3.30;;;;;;;3.07;69.72;99632.97;5037849;28;20180;-80
2021/01/28 12:48:43;;;;;;;4.85;3.28;;;;;;;2.64;71.66;99625.25;5011157;28;20038;-81
2021/01/28 12:51:11;;;;;;;4.65;2.92;;;;;;;2.87;72.51;99619.06;5023101;28;20045;-80
2021/01/28 12:53:38;;;;;;;4.60;3.47;;;;;;;3.17;72.09;99624.69;5030253;28;20133;-82
2021/01/28 12:56:05;;;;;;;4.63;2.75;;;;;;;3.19;70.30;99619.41;5026357;28;20072;-81
2021/01/28 12:58:32;;;;;;;11.25;3.38;;;;;;;3.02;71.62;99623.63;4992165;28;20061;-81
2021/01/28 13:00:58;;;;;;;7.03;3.60;;;;;;;2.68;71.48;99621.63;5029878;28;20064;-81
2021/01/28 13:03:29;;;;;;;6.45;3.08;;;;;;;2.85;72.36;99613.09;5010036;28;20053;-81
2021/01/28 13:05:56;;;;;;;10.65;3.67;;;;;;;2.94;71.85;99610.09;5031772;28;20041;-82
2021/01/28 13:08:23;;;;;;;5.60;2.83;;;;;;;3.10;70.24;99606.81;5029695;28;20168;-80
2021/01/28 13:10:51;;;;;;;12.07;3.50;;;;;;;3.02;71.63;99601.97;5013499;28;20033;-79
2021/01/28 13:13:18;;;;;;;5.18;3.17;;;;;;;2.97;70.66;99604.78;4995579;28;20080;-81
2021/01/28 13:15:49;;;;;;;8.15;3.00;;;;;;;2.67;71.46;99606.09;5016391;28;20052;-81
2021/01/28 13:18:16;;;;;;;11.73;3.20;;;;;;;2.76;71.96;99595.31;5013658;28;20045;-81
2021/01/28 13:20:43;;;;;;;20.30;3.05;;;;;;;2.76;70.86;99593.56;5033176;28;20053;-79
2021/01/28 13:23:10;;;;;;;5.32;3.15;;;;;;;2.78;71.11;99594.31;5014523;28;20041;-79
2021/01/28 13:25:37;;;;;;;5.68;2.53;;;;;;;3.07;70.43;99594.81;4994968;28;20062;-80
2021/01/28 13:28:04;;;;;;;6.75;3.22;;;;;;;2.80;70.90;99589.06;5009519;28;20052;-80
2021/01/28 13:30:31;;;;;;;7.10;3.47;;;;;;;2.58;71.85;99589.16;5005848;28;20109;-82
2021/01/28 13:32:57;;;;;;;7.38;4.15;;;;;;;2.76;71.48;99587.53;5027259;28;20120;-80
2021/01/28 13:35:26;;;;;;;6.57;3.50;;;;;;;2.86;70.11;99594.00;4976143;28;20053;-80
2021/01/28 13:37:54;;;;;;;6.15;3.30;;;;;;;3.18;69.57;99582.16;4995195;28;20057;-81
2021/01/28 13:40:23;;;;;;;5.95;3.38;;;;;;;3.22;68.70;99582.88;4998502;28;20058;-79
2021/01/28 13:42:50;;;;;;;9.48;3.40;;;;;;;2.95;69.60;99584.94;5014120;28;20056;-81
2021/01/28 13:45:19;;;;;;;10.52;5.20;;;;;;;2.95;71.36;99570.19;4988383;28;20029;-79
2021/01/28 13:47:46;;;;;;;7.22;3.65;;;;;;;3.20;70.12;99582.13;5020127;28;20064;-79
2021/01/28 13:50:22;;;;;;;6.00;3.40;;;;;;;2.50;70.55;99579.09;5017800;28;20237;-78
2021/01/28 13:52:51;;;;;;;6.43;3.85;;;;;;;2.65;69.78;99571.53;5018278;28;20061;-78
2021/01/28 13:55:18;;;;;;;7.85;4.13;;;;;;;2.63;70.71;99569.00;5022532;28;20045;-80
2021/01/28 13:57:44;;;;;;;8.57;4.07;;;;;;;2.76;69.62;99567.56;5021828;28;20117;-80
2021/01/28 14:00:14;;;;;;;8.95;3.22;;;;;;;2.50;70.16;99562.66;5027542;28;20049;-83
2021/01/28 14:02:41;;;;;;;9.52;3.83;;;;;;;2.60;70.39;99557.91;5039226;28;20068;-80
2021/01/28 14:05:09;;;;;;;11.70;4.05;;;;;;;2.38;69.64;99564.00;5030221;28;20069;-80
2021/01/28 14:07:36;;;;;;;10.75;4.30;;;;;;;2.50;71.31;99555.69;5028853;28;20069;-81
2021/01/28 14:10:04;;;;;;;18.20;4.28;;;;;;;2.62;70.71;99559.53;5013831;28;20058;-83